Aérodrome :
LOGIN :

S'inscrire | Disclaimer

   EN    FR    IT 

 










Légende :    VFR   VFR Marginal   IFR   IFR Intensif   IFR Très Intensif
Visi : 
Plafond : 
>= 8 km
>= 3000ft
5 à 8 km
1000 à 3000 ft
1500m à 5 km
500 à 1000 ft
800 à 1500m
200 à 500 ft
< 800m
< 200 ft
Symboles :   Orages  Brouillard  Fortes neiges  Fortes précipitations  Vent > 20 kt
SIGMETs :   Divers  Orages  Givrage  Turbulence  Onde Orograph.  Cendres Volcan.






- Altitude de l'aérodrome : 124 ft
- Code IATA : NHT


EGWU - RAF Northolt

DERNIER METAR :
  • 301820Z 32006KT 9999 FEW035CB SCT045 15/10 Q1012 TEMPO 7000 SHRA RMK BLU TEMPO WHT

METARs EXPIRÉS :
  • 301803Z 31007KT 9999 FEW035CB SCT045 15/10 Q1012 TEMPO 7000 SHRA RMK BLU TEMPO WHT
  • 301750Z 30009KT 9999 7000N VCSH FEW035TCU BKN040 15/10 Q1012 TEMPO 9999 NSW
  • 301720Z 33012KT 9999 FEW035CB BKN040 16/09 Q1012 TEMPO 7000 SHRA RMK BLU TEMPO WHT
  • 301650Z 33009KT 9999 VCSH FEW038CB SCT040 17/11 Q1012 TEMPO 7000 SHRA
  • 301620Z 25010KT 9999 VCSH FEW035CB SCT060 19/08 Q1011 RETS TEMPO 7000 SHRA RMK BLU TEMPO WHT
  • 301550Z 23010KT 9999 7000NW TS VCSH BKN035CB BKN060CB 18/10 Q1011 TEMPO 4000 TSRA

TAF AMD TAF EGWU
Valide du 30 à 18h jusqu'au 01 à 12h UTC


301736Z 3018/0112 24010KT 9999 SCT040
TEMPO 3018/3024 7000 SHRA
PROB30
TEMPO 3018/3024 4000 +SHRA BKN024CB
PROB40
TEMPO 0102/0107 SCT008
PROB30
TEMPO 0105/0106 SCT006
PROB30
TEMPO 0107/0109 SCT020
PROB30
TEMPO 0109/0112 7000 SHRA



MET'MAP, la Météo Aéronautique d'un coup d'oeil ! - Copyright ORBIFLY Décembre 2007 - Disclaimer

ORBIFLY MET'MAP TEAM :

Programmation & Développement : Alexandra Zaïnal
Sur une idée originale de : Baudouin d'Aumeries
Soutien technique & logistique : Manuel Goepfert
Assistance : Marc-Olivier Méhu




SOURCES & CREDITS :

   NOAA